createdAt,value
2023-01-27T00:01:16.035Z,1.40
2023-01-27T00:03:42.706Z,1.30
2023-01-27T00:06:11.900Z,1.30
2023-01-27T00:08:38.708Z,1.20
2023-01-27T00:11:23.958Z,1.30
2023-01-27T00:13:50.575Z,1.20
2023-01-27T00:16:17.206Z,1.30
2023-01-27T00:18:44.202Z,1.40
2023-01-27T00:21:29.333Z,1.40
2023-01-27T00:24:14.858Z,1.40
2023-01-27T00:26:41.514Z,1.40
2023-01-27T00:29:08.103Z,1.30
2023-01-27T00:31:53.246Z,1.30
2023-01-27T00:34:19.851Z,1.20
2023-01-27T00:36:46.519Z,1.20
2023-01-27T00:39:13.209Z,1.20
2023-01-27T00:41:40.883Z,1.10
2023-01-27T00:44:12.893Z,1.00
2023-01-27T00:46:39.767Z,0.90
2023-01-27T00:49:06.475Z,1.00
2023-01-27T00:51:33.454Z,1.00
2023-01-27T00:54:02.801Z,1.00
2023-01-27T00:56:30.199Z,1.10
2023-01-27T00:58:56.888Z,0.90
2023-01-27T01:01:23.495Z,0.90
2023-01-27T01:03:50.189Z,0.80
2023-01-27T01:06:18.059Z,0.90
2023-01-27T01:08:45.000Z,0.80
2023-01-27T01:11:16.134Z,0.80
2023-01-27T01:13:43.532Z,0.80
2023-01-27T01:16:12.675Z,0.70
2023-01-27T01:18:39.996Z,0.80
2023-01-27T01:21:07.478Z,0.80
2023-01-27T01:23:37.541Z,0.70
2023-01-27T01:26:04.305Z,0.60
2023-01-27T01:28:31.044Z,0.60
2023-01-27T01:31:04.728Z,0.70
2023-01-27T01:33:31.432Z,0.80
2023-01-27T01:36:02.839Z,0.70
2023-01-27T01:38:29.380Z,0.80
2023-01-27T01:40:55.983Z,0.80
2023-01-27T01:43:22.866Z,0.90
2023-01-27T01:45:54.537Z,0.90
2023-01-27T01:48:31.889Z,0.90
2023-01-27T01:51:10.749Z,0.90
2023-01-27T01:53:43.770Z,0.90
2023-01-27T01:56:24.542Z,0.80
2023-01-27T01:58:52.829Z,0.80
2023-01-27T02:01:19.480Z,0.80
2023-01-27T02:03:53.169Z,0.80
2023-01-27T02:06:20.509Z,0.80
2023-01-27T02:08:49.095Z,0.70
2023-01-27T02:11:15.812Z,0.80
2023-01-27T02:13:43.049Z,0.90
2023-01-27T02:16:10.992Z,1.00
2023-01-27T02:18:40.163Z,1.00
2023-01-27T02:21:07.653Z,1.00
2023-01-27T02:23:47.628Z,1.00
2023-01-27T02:26:35.039Z,1.00
2023-01-27T02:29:11.471Z,1.00
2023-01-27T02:31:38.858Z,1.00
2023-01-27T02:34:10.008Z,0.90
2023-01-27T02:36:42.240Z,0.90
2023-01-27T02:39:12.759Z,0.80
2023-01-27T02:41:45.797Z,0.90
2023-01-27T02:44:12.375Z,0.80
2023-01-27T02:46:38.935Z,0.80
2023-01-27T02:49:06.132Z,0.70
2023-01-27T02:51:32.724Z,0.70
2023-01-27T02:53:59.320Z,0.70
2023-01-27T02:56:26.272Z,0.70
2023-01-27T02:58:52.892Z,0.70
2023-01-27T03:01:19.546Z,0.70
2023-01-27T03:03:47.621Z,0.80
2023-01-27T03:06:14.764Z,0.80
2023-01-27T03:08:41.816Z,0.80
2023-01-27T03:11:09.823Z,0.90
2023-01-27T03:13:37.257Z,0.80
2023-01-27T03:16:24.732Z,0.90
2023-01-27T03:18:53.842Z,0.90
2023-01-27T03:21:20.778Z,0.80
2023-01-27T03:23:49.113Z,0.70
2023-01-27T03:26:16.256Z,0.70
2023-01-27T03:28:43.342Z,0.70
2023-01-27T03:31:19.595Z,0.80
2023-01-27T03:33:47.675Z,0.70
2023-01-27T03:36:33.802Z,0.70
2023-01-27T03:39:19.274Z,0.70
2023-01-27T03:42:04.607Z,0.80
2023-01-27T03:44:50.026Z,0.70
2023-01-27T03:47:16.593Z,0.70
2023-01-27T03:49:43.171Z,0.60
2023-01-27T03:52:09.767Z,0.60
2023-01-27T03:54:36.333Z,0.70
2023-01-27T03:57:05.935Z,0.70
2023-01-27T03:59:33.134Z,0.60
2023-01-27T04:02:19.777Z,0.70
2023-01-27T04:05:05.306Z,0.60
2023-01-27T04:07:35.287Z,0.70
2023-01-27T04:10:03.081Z,0.80
2023-01-27T04:12:31.020Z,0.70
2023-01-27T04:14:57.782Z,0.60
2023-01-27T04:17:24.418Z,0.70
2023-01-27T04:19:50.996Z,0.80
2023-01-27T04:22:17.894Z,0.80
2023-01-27T04:24:44.510Z,0.80
2023-01-27T04:27:13.621Z,0.90
2023-01-27T04:29:41.616Z,0.90
2023-01-27T04:32:10.255Z,0.90
2023-01-27T04:34:37.583Z,0.90
2023-01-27T04:37:05.772Z,0.90
2023-01-27T04:39:32.676Z,0.90
2023-01-27T04:41:59.428Z,0.80
2023-01-27T04:44:26.506Z,0.90
2023-01-27T04:46:54.619Z,0.80
2023-01-27T04:49:22.279Z,0.80
2023-01-27T04:51:48.934Z,0.80
2023-01-27T04:54:15.794Z,0.80
2023-01-27T04:56:54.107Z,0.80
2023-01-27T04:59:20.888Z,0.80
2023-01-27T05:01:47.625Z,0.80
2023-01-27T05:04:14.675Z,0.90
2023-01-27T05:06:41.511Z,0.90
2023-01-27T05:09:08.167Z,0.90
2023-01-27T05:11:34.813Z,0.90
2023-01-27T05:14:01.619Z,0.90
2023-01-27T05:16:28.252Z,0.80
2023-01-27T05:18:56.097Z,0.80
2023-01-27T05:21:24.800Z,0.80
2023-01-27T05:23:51.658Z,0.80
2023-01-27T05:26:21.247Z,0.80
2023-01-27T05:28:49.127Z,0.80
2023-01-27T05:31:24.379Z,0.80
2023-01-27T05:33:52.908Z,0.80
2023-01-27T05:36:21.251Z,0.70
2023-01-27T05:38:48.096Z,0.70
2023-01-27T05:41:16.348Z,0.70
2023-01-27T05:43:46.292Z,0.70
2023-01-27T05:46:15.626Z,0.70
2023-01-27T05:48:44.570Z,0.70
2023-01-27T05:51:14.698Z,0.70
2023-01-27T05:53:42.527Z,0.80
2023-01-27T05:56:11.201Z,0.90
2023-01-27T05:58:38.428Z,0.90
2023-01-27T06:01:14.387Z,0.90
2023-01-27T06:03:41.868Z,1.00
2023-01-27T06:06:09.822Z,1.00
2023-01-27T06:08:37.261Z,0.90
2023-01-27T06:11:04.609Z,0.90
2023-01-27T06:13:32.007Z,0.90
2023-01-27T06:15:58.656Z,0.90
2023-01-27T06:18:25.324Z,0.90
2023-01-27T06:20:52.064Z,1.00
2023-01-27T06:23:18.769Z,0.90
2023-01-27T06:25:47.719Z,1.00
2023-01-27T06:28:28.067Z,1.00
2023-01-27T06:30:55.815Z,1.00
2023-01-27T06:33:22.496Z,1.00
2023-01-27T06:35:49.093Z,0.90
2023-01-27T06:38:15.727Z,0.90
2023-01-27T06:40:43.026Z,0.90
2023-01-27T06:43:14.793Z,0.90
2023-01-27T06:45:41.435Z,0.90
2023-01-27T06:48:08.624Z,0.80
2023-01-27T06:50:36.505Z,0.60
2023-01-27T06:53:07.687Z,0.70
2023-01-27T06:55:35.608Z,0.60
2023-01-27T06:58:02.793Z,0.70
2023-01-27T07:00:30.043Z,0.70
2023-01-27T07:02:57.370Z,0.70
2023-01-27T07:05:24.276Z,0.70
2023-01-27T07:07:51.147Z,0.80
2023-01-27T07:10:18.195Z,0.80
2023-01-27T07:12:44.867Z,0.80
2023-01-27T07:15:12.529Z,0.80
2023-01-27T07:17:39.115Z,0.80
2023-01-27T07:20:07.832Z,0.90
2023-01-27T07:22:34.421Z,0.90
2023-01-27T07:25:01.646Z,1.00
2023-01-27T07:27:29.325Z,1.10
2023-01-27T07:29:56.186Z,1.10
2023-01-27T07:32:22.995Z,1.10
2023-01-27T07:34:49.654Z,1.10
2023-01-27T07:37:16.941Z,1.10
2023-01-27T07:39:43.654Z,1.10
2023-01-27T07:42:10.259Z,1.10
2023-01-27T07:44:36.887Z,1.00
2023-01-27T07:47:03.753Z,0.90
2023-01-27T07:49:30.332Z,1.00
2023-01-27T07:51:57.224Z,0.90
2023-01-27T07:54:25.225Z,0.90
2023-01-27T07:56:51.836Z,0.90
2023-01-27T07:59:18.502Z,1.00
2023-01-27T08:01:47.839Z,0.90
2023-01-27T08:04:15.020Z,0.90
2023-01-27T08:06:41.646Z,0.80
2023-01-27T08:09:08.350Z,0.90
2023-01-27T08:11:35.542Z,0.90
2023-01-27T08:14:02.941Z,1.00
2023-01-27T08:16:29.949Z,1.10
2023-01-27T08:18:56.752Z,1.00
2023-01-27T08:21:25.292Z,0.90
2023-01-27T08:23:54.122Z,1.00
2023-01-27T08:26:20.782Z,1.00
2023-01-27T08:28:47.458Z,0.90
2023-01-27T08:31:16.688Z,0.80
2023-01-27T08:33:45.314Z,0.80
2023-01-27T08:36:14.756Z,0.80
2023-01-27T08:38:43.179Z,0.90
2023-01-27T08:41:13.320Z,0.90
2023-01-27T08:43:40.492Z,0.90
2023-01-27T08:46:07.801Z,0.90
2023-01-27T08:48:35.804Z,0.90
2023-01-27T08:51:03.644Z,0.90
2023-01-27T08:53:30.662Z,1.10
2023-01-27T08:56:01.890Z,1.20
2023-01-27T08:58:28.466Z,1.10
2023-01-27T09:00:55.270Z,1.10
2023-01-27T09:03:21.864Z,1.00
2023-01-27T09:05:48.465Z,1.00
2023-01-27T09:08:15.972Z,1.00
2023-01-27T09:10:43.127Z,0.90
2023-01-27T09:13:09.743Z,0.90
2023-01-27T09:15:37.631Z,1.00
2023-01-27T09:18:06.627Z,0.90
2023-01-27T09:20:34.442Z,0.90
2023-01-27T09:23:02.261Z,0.80
2023-01-27T09:25:28.889Z,0.80
2023-01-27T09:27:56.879Z,0.90
2023-01-27T09:30:25.012Z,0.90
2023-01-27T09:32:51.818Z,0.90
2023-01-27T09:35:19.000Z,0.90
2023-01-27T09:37:57.631Z,0.90
2023-01-27T09:41:10.013Z,0.90
2023-01-27T09:43:54.647Z,0.90
2023-01-27T09:47:00.133Z,1.00
2023-01-27T09:49:57.368Z,1.00
2023-01-27T09:52:54.888Z,0.90
2023-01-27T09:55:27.060Z,1.00
2023-01-27T09:58:04.515Z,1.00
2023-01-27T10:01:02.591Z,1.00
2023-01-27T10:04:03.678Z,1.00
2023-01-27T10:06:48.380Z,1.00
2023-01-27T10:09:36.103Z,1.00
2023-01-27T10:12:20.871Z,0.90
2023-01-27T10:15:08.444Z,0.90
2023-01-27T10:17:55.052Z,1.00
2023-01-27T10:20:21.624Z,1.10
2023-01-27T10:23:18.497Z,0.90
2023-01-27T10:25:57.278Z,0.90
2023-01-27T10:28:27.343Z,0.90
2023-01-27T10:31:11.892Z,1.00
2023-01-27T10:33:51.052Z,0.90
2023-01-27T10:36:38.783Z,0.80
2023-01-27T10:39:46.920Z,0.80
2023-01-27T10:42:34.380Z,0.90
2023-01-27T10:45:12.550Z,1.00
2023-01-27T10:47:51.174Z,1.00
2023-01-27T10:50:35.621Z,0.90
2023-01-27T10:53:17.188Z,1.00
2023-01-27T10:55:56.204Z,1.00
2023-01-27T10:58:44.455Z,0.80
2023-01-27T11:01:20.800Z,0.90
2023-01-27T11:04:02.204Z,0.90
2023-01-27T11:06:34.045Z,0.90
2023-01-27T11:09:28.884Z,1.00
2023-01-27T11:12:01.560Z,1.00
2023-01-27T11:14:49.828Z,1.10
2023-01-27T11:17:28.959Z,1.20
2023-01-27T11:20:04.538Z,1.20
2023-01-27T11:22:54.599Z,1.20
2023-01-27T11:25:47.569Z,1.30
2023-01-27T11:28:41.928Z,1.40
2023-01-27T11:31:39.358Z,1.30
2023-01-27T11:34:21.318Z,1.20
2023-01-27T11:36:49.994Z,1.10
2023-01-27T11:39:18.231Z,1.10
2023-01-27T11:41:51.837Z,0.90
2023-01-27T11:44:21.209Z,0.90
2023-01-27T11:46:49.176Z,0.90
2023-01-27T11:49:23.953Z,0.90
2023-01-27T11:51:50.592Z,1.00
2023-01-27T11:54:20.203Z,0.90
2023-01-27T11:56:49.121Z,0.80
2023-01-27T11:59:34.663Z,0.90
2023-01-27T12:02:10.061Z,0.90
2023-01-27T12:04:39.531Z,1.00
2023-01-27T12:07:14.940Z,1.00
2023-01-27T12:09:42.143Z,1.10
2023-01-27T12:12:14.986Z,1.00
2023-01-27T12:14:58.810Z,1.10
2023-01-27T12:17:33.294Z,1.10
2023-01-27T12:20:06.118Z,1.00
2023-01-27T12:22:37.256Z,1.00
2023-01-27T12:25:08.237Z,1.00
2023-01-27T12:27:49.634Z,1.00
2023-01-27T12:30:26.123Z,1.00
2023-01-27T12:32:54.055Z,1.10
2023-01-27T12:35:28.588Z,1.00
2023-01-27T12:37:59.574Z,1.10
2023-01-27T12:40:30.393Z,1.10
2023-01-27T12:43:12.543Z,1.10
2023-01-27T12:45:39.879Z,1.10
2023-01-27T12:48:09.610Z,1.10
2023-01-27T12:50:54.590Z,1.10
2023-01-27T12:53:25.566Z,1.00
2023-01-27T12:56:15.089Z,1.00
2023-01-27T12:58:58.067Z,1.00
2023-01-27T13:01:41.339Z,0.90
2023-01-27T13:04:37.107Z,0.90
2023-01-27T13:07:08.220Z,0.90
2023-01-27T13:10:00.763Z,0.90
2023-01-27T13:12:48.742Z,0.80
2023-01-27T13:15:16.987Z,0.80
2023-01-27T13:17:51.988Z,0.80
2023-01-27T13:20:42.825Z,0.80
2023-01-27T13:23:21.063Z,0.90
2023-01-27T13:26:04.801Z,0.80
2023-01-27T13:28:52.173Z,0.80
2023-01-27T13:31:49.588Z,0.90
2023-01-27T13:34:43.941Z,0.90
2023-01-27T13:37:17.499Z,1.00
2023-01-27T13:40:13.316Z,1.00
2023-01-27T13:42:49.377Z,1.00
2023-01-27T13:45:21.458Z,1.00
2023-01-27T13:48:04.785Z,1.00
2023-01-27T13:50:41.428Z,1.00
2023-01-27T13:53:12.514Z,1.10
2023-01-27T13:56:16.581Z,1.00
2023-01-27T13:59:08.795Z,1.10
2023-01-27T14:01:52.524Z,1.00
2023-01-27T14:04:34.214Z,0.90
2023-01-27T14:07:40.560Z,1.00
2023-01-27T14:10:16.502Z,1.10
2023-01-27T14:12:58.962Z,1.10
2023-01-27T14:15:49.658Z,1.10
2023-01-27T14:18:44.717Z,1.10
2023-01-27T14:21:46.881Z,1.10
2023-01-27T14:24:49.356Z,1.20
2023-01-27T14:27:24.378Z,1.10
2023-01-27T14:30:02.340Z,1.00
2023-01-27T14:32:46.903Z,1.10
2023-01-27T14:35:27.755Z,1.00
2023-01-27T14:38:15.357Z,1.00
2023-01-27T14:41:00.136Z,1.00
2023-01-27T14:43:48.306Z,1.00
2023-01-27T14:46:31.377Z,1.00
2023-01-27T14:49:32.027Z,1.00
2023-01-27T14:52:41.740Z,1.00
2023-01-27T14:55:27.764Z,1.00
2023-01-27T14:58:09.355Z,1.10
2023-01-27T15:00:54.214Z,1.10
2023-01-27T15:03:46.180Z,1.10
2023-01-27T15:06:22.254Z,1.10
2023-01-27T15:09:08.388Z,1.20
2023-01-27T15:11:50.961Z,1.20
2023-01-27T15:14:48.351Z,1.20
2023-01-27T15:17:42.444Z,1.20
2023-01-27T15:20:30.798Z,1.20
2023-01-27T15:23:09.240Z,1.10
2023-01-27T15:25:52.276Z,1.00
2023-01-27T15:28:24.482Z,1.10
2023-01-27T15:31:21.379Z,1.10
2023-01-27T15:33:55.958Z,1.10
2023-01-27T15:36:28.419Z,1.20
2023-01-27T15:39:09.892Z,1.00
2023-01-27T15:41:37.259Z,1.00
2023-01-27T15:44:33.876Z,1.00
2023-01-27T15:47:15.003Z,1.10
2023-01-27T15:49:51.680Z,1.00
2023-01-27T15:52:35.823Z,0.90
2023-01-27T15:55:05.267Z,0.90
2023-01-27T15:57:35.638Z,0.90
2023-01-27T16:00:21.529Z,0.80
2023-01-27T16:02:53.629Z,0.90
2023-01-27T16:05:43.299Z,0.90
2023-01-27T16:08:15.750Z,0.90
2023-01-27T16:10:42.956Z,0.80
2023-01-27T16:13:23.463Z,0.80
2023-01-27T16:16:19.173Z,0.80
2023-01-27T16:18:56.888Z,0.80
2023-01-27T16:21:29.524Z,0.80
2023-01-27T16:24:02.824Z,0.70
2023-01-27T16:26:48.650Z,0.70
2023-01-27T16:29:26.209Z,0.70
2023-01-27T16:31:58.976Z,0.80
2023-01-27T16:34:34.293Z,0.80
2023-01-27T16:37:25.031Z,0.70
2023-01-27T16:40:06.708Z,0.80
2023-01-27T16:42:40.907Z,0.60
2023-01-27T16:45:19.188Z,0.60
2023-01-27T16:47:51.107Z,0.60
2023-01-27T16:50:34.771Z,0.50
2023-01-27T16:53:03.558Z,0.60
2023-01-27T16:55:30.536Z,0.60
2023-01-27T16:57:59.200Z,0.60
2023-01-27T17:00:31.554Z,0.60
2023-01-27T17:03:02.524Z,0.70
2023-01-27T17:05:29.306Z,0.70
2023-01-27T17:08:03.757Z,0.80
2023-01-27T17:10:34.732Z,0.80
2023-01-27T17:13:01.845Z,0.80
2023-01-27T17:15:33.427Z,0.80
2023-01-27T17:18:00.478Z,0.80
2023-01-27T17:20:31.994Z,0.70
2023-01-27T17:22:59.439Z,0.80
2023-01-27T17:25:31.768Z,0.70
2023-01-27T17:28:06.689Z,0.70
2023-01-27T17:30:38.003Z,0.70
2023-01-27T17:33:06.629Z,0.70
2023-01-27T17:35:39.647Z,0.70
2023-01-27T17:38:14.902Z,0.60
2023-01-27T17:40:46.551Z,0.60
2023-01-27T17:43:38.059Z,0.60
2023-01-27T17:46:16.713Z,0.60
2023-01-27T17:48:57.631Z,0.60
2023-01-27T17:51:32.894Z,0.50
2023-01-27T17:54:00.409Z,0.60
2023-01-27T17:56:28.781Z,0.50
2023-01-27T17:59:06.509Z,0.50
2023-01-27T18:01:34.475Z,0.60
2023-01-27T18:04:02.392Z,0.60
2023-01-27T18:06:29.766Z,0.60
2023-01-27T18:09:00.922Z,0.60
2023-01-27T18:11:31.461Z,0.60
2023-01-27T18:14:09.285Z,0.60
2023-01-27T18:16:36.104Z,0.60
2023-01-27T18:19:08.261Z,0.60
2023-01-27T18:21:36.515Z,0.60
2023-01-27T18:24:21.919Z,0.70
2023-01-27T18:26:49.920Z,0.60
2023-01-27T18:29:17.504Z,0.70
2023-01-27T18:31:56.087Z,0.70
2023-01-27T18:34:32.921Z,0.70
2023-01-27T18:37:06.182Z,0.60
2023-01-27T18:39:36.317Z,0.70
2023-01-27T18:42:09.994Z,0.70
2023-01-27T18:44:37.092Z,0.60
2023-01-27T18:47:26.736Z,0.60
2023-01-27T18:50:10.468Z,0.70
2023-01-27T18:52:37.700Z,0.70
2023-01-27T18:55:31.492Z,0.70
2023-01-27T18:58:00.058Z,0.70
2023-01-27T19:00:29.249Z,0.70
2023-01-27T19:03:00.976Z,0.60
2023-01-27T19:05:32.922Z,0.70
2023-01-27T19:08:00.215Z,0.70
2023-01-27T19:10:31.548Z,0.80
2023-01-27T19:13:00.170Z,0.70
2023-01-27T19:15:29.094Z,0.80
2023-01-27T19:17:57.081Z,0.60
2023-01-27T19:20:26.618Z,0.60
2023-01-27T19:22:54.520Z,0.70
2023-01-27T19:25:23.587Z,0.60
2023-01-27T19:27:53.547Z,0.70
2023-01-27T19:30:36.587Z,0.80
2023-01-27T19:33:04.615Z,0.80
2023-01-27T19:35:32.274Z,0.80
2023-01-27T19:38:02.544Z,0.80
2023-01-27T19:40:29.766Z,0.80
2023-01-27T19:42:56.816Z,0.80
2023-01-27T19:45:23.787Z,0.80
2023-01-27T19:47:50.717Z,0.80
2023-01-27T19:50:24.011Z,0.80
2023-01-27T19:52:50.966Z,0.70
2023-01-27T19:55:20.274Z,0.80
2023-01-27T19:57:48.392Z,0.90
2023-01-27T20:00:17.824Z,0.90
2023-01-27T20:02:44.412Z,0.90
2023-01-27T20:05:11.240Z,0.80
2023-01-27T20:07:38.891Z,0.80
2023-01-27T20:10:08.825Z,0.70
2023-01-27T20:12:35.587Z,0.70
2023-01-27T20:15:02.140Z,0.70
2023-01-27T20:17:28.696Z,0.60
2023-01-27T20:19:55.256Z,0.60
2023-01-27T20:22:22.141Z,0.70
2023-01-27T20:24:48.679Z,0.80
2023-01-27T20:27:15.252Z,0.60
2023-01-27T20:29:41.923Z,0.70
2023-01-27T20:32:09.474Z,0.60
2023-01-27T20:34:36.839Z,0.50
2023-01-27T20:37:03.408Z,0.60
2023-01-27T20:39:31.318Z,0.50
2023-01-27T20:41:57.924Z,0.60
2023-01-27T20:44:24.481Z,0.60
2023-01-27T20:46:51.184Z,0.70
2023-01-27T20:49:17.882Z,0.60
2023-01-27T20:51:44.524Z,0.60
2023-01-27T20:54:12.039Z,0.60
2023-01-27T20:56:38.600Z,0.70
2023-01-27T20:59:05.192Z,0.70
2023-01-27T21:01:33.014Z,0.80
2023-01-27T21:03:59.738Z,0.70
2023-01-27T21:06:26.499Z,0.60
2023-01-27T21:08:53.088Z,0.70
2023-01-27T21:11:21.156Z,0.70
2023-01-27T21:13:48.945Z,0.70
2023-01-27T21:16:15.600Z,0.70
2023-01-27T21:18:42.357Z,0.70
2023-01-27T21:21:25.596Z,0.70
2023-01-27T21:23:52.336Z,0.60
2023-01-27T21:26:18.990Z,0.60
2023-01-27T21:28:45.808Z,0.70
2023-01-27T21:31:16.254Z,0.70
2023-01-27T21:33:45.797Z,0.70
2023-01-27T21:36:13.041Z,0.70
2023-01-27T21:38:40.276Z,0.60
2023-01-27T21:41:37.778Z,0.60
2023-01-27T21:44:23.935Z,0.60
2023-01-27T21:46:50.618Z,0.60
2023-01-27T21:49:17.204Z,0.60
2023-01-27T21:51:43.764Z,0.70
2023-01-27T21:54:10.412Z,0.70
2023-01-27T21:56:37.201Z,0.70
2023-01-27T21:59:03.862Z,0.60
2023-01-27T22:01:31.728Z,0.60
2023-01-27T22:03:58.684Z,0.50
2023-01-27T22:06:25.450Z,0.60
2023-01-27T22:08:52.274Z,0.80
2023-01-27T22:11:19.531Z,0.60
2023-01-27T22:13:46.180Z,0.60
2023-01-27T22:16:15.353Z,0.60
2023-01-27T22:18:42.891Z,0.60
2023-01-27T22:21:09.749Z,0.50
2023-01-27T22:23:36.367Z,0.50
2023-01-27T22:26:07.316Z,0.60
2023-01-27T22:28:33.976Z,0.70
2023-01-27T22:31:01.785Z,0.60
2023-01-27T22:33:28.397Z,0.70
2023-01-27T22:36:03.887Z,0.70
2023-01-27T22:38:30.539Z,0.70
2023-01-27T22:40:58.316Z,0.70
2023-01-27T22:43:25.171Z,0.80
2023-01-27T22:45:51.867Z,0.80
2023-01-27T22:48:18.468Z,0.80
2023-01-27T22:50:45.373Z,0.90
2023-01-27T22:53:12.099Z,0.90
2023-01-27T22:55:38.649Z,0.90
2023-01-27T22:58:05.514Z,0.90
2023-01-27T23:00:32.318Z,0.90
2023-01-27T23:02:59.092Z,1.00
2023-01-27T23:05:25.757Z,1.00
2023-01-27T23:07:52.364Z,1.00
2023-01-27T23:10:19.285Z,0.90
2023-01-27T23:12:45.845Z,0.90
2023-01-27T23:15:13.045Z,0.90
2023-01-27T23:17:40.107Z,1.00
2023-01-27T23:20:07.588Z,1.00
2023-01-27T23:22:34.370Z,1.00
2023-01-27T23:25:01.282Z,1.10
2023-01-27T23:27:28.536Z,1.00
2023-01-27T23:29:55.438Z,1.00
2023-01-27T23:32:22.354Z,0.90
2023-01-27T23:34:48.918Z,1.00
2023-01-27T23:37:15.612Z,1.00
2023-01-27T23:39:45.747Z,1.00
2023-01-27T23:42:12.346Z,1.10
2023-01-27T23:44:39.183Z,1.10
2023-01-27T23:47:05.854Z,1.10
2023-01-27T23:49:32.434Z,1.10
2023-01-27T23:51:59.234Z,1.10
2023-01-27T23:54:25.879Z,1.20
2023-01-27T23:56:52.468Z,1.10
2023-01-27T23:59:19.104Z,1.10
